sensor_id;sensor_type;location;lat;lon;timestamp;pressure;altitude;pressure_sealevel;temperature;humidity
69306;BME280;56427;51.580;4.656;2023-02-04T00:02:22;103338.75;;;6.82;100.00
69306;BME280;56427;51.580;4.656;2023-02-04T00:04:47;103324.97;;;6.83;100.00
69306;BME280;56427;51.580;4.656;2023-02-04T00:07:13;103337.16;;;6.78;100.00
69306;BME280;56427;51.580;4.656;2023-02-04T00:09:38;103331.00;;;6.82;100.00
69306;BME280;56427;51.580;4.656;2023-02-04T00:12:04;103331.69;;;6.89;100.00
69306;BME280;56427;51.580;4.656;2023-02-04T00:14:29;103335.25;;;6.85;100.00
69306;BME280;56427;51.580;4.656;2023-02-04T00:16:54;103333.31;;;6.93;100.00
69306;BME280;56427;51.580;4.656;2023-02-04T00:19:20;103337.75;;;6.88;100.00
69306;BME280;56427;51.580;4.656;2023-02-04T00:21:45;103341.22;;;6.87;100.00
69306;BME280;56427;51.580;4.656;2023-02-04T00:24:11;103336.75;;;6.92;100.00
69306;BME280;56427;51.580;4.656;2023-02-04T00:26:36;103337.47;;;6.97;100.00
69306;BME280;56427;51.580;4.656;2023-02-04T00:29:01;103338.50;;;6.91;100.00
69306;BME280;56427;51.580;4.656;2023-02-04T00:31:27;103339.75;;;6.78;100.00
69306;BME280;56427;51.580;4.656;2023-02-04T00:33:52;103341.97;;;6.90;100.00
69306;BME280;56427;51.580;4.656;2023-02-04T00:36:17;103336.94;;;6.86;100.00
69306;BME280;56427;51.580;4.656;2023-02-04T00:38:43;103335.28;;;6.83;100.00
69306;BME280;56427;51.580;4.656;2023-02-04T00:41:08;103331.03;;;6.80;100.00
69306;BME280;56427;51.580;4.656;2023-02-04T00:43:33;103323.34;;;6.79;100.00
69306;BME280;56427;51.580;4.656;2023-02-04T00:45:59;103336.97;;;6.84;100.00
69306;BME280;56427;51.580;4.656;2023-02-04T00:48:24;103337.72;;;6.89;100.00
69306;BME280;56427;51.580;4.656;2023-02-04T00:50:49;103333.19;;;6.97;100.00
69306;BME280;56427;51.580;4.656;2023-02-04T00:53:15;103338.44;;;6.94;100.00
69306;BME280;56427;51.580;4.656;2023-02-04T00:55:40;103329.34;;;6.81;100.00
69306;BME280;56427;51.580;4.656;2023-02-04T00:58:05;103331.81;;;6.84;100.00
69306;BME280;56427;51.580;4.656;2023-02-04T01:00:31;103335.50;;;6.75;100.00
69306;BME280;56427;51.580;4.656;2023-02-04T01:02:56;103333.84;;;6.73;100.00
69306;BME280;56427;51.580;4.656;2023-02-04T01:05:21;103337.19;;;6.76;100.00
69306;BME280;56427;51.580;4.656;2023-02-04T01:07:47;103337.31;;;6.72;100.00
69306;BME280;56427;51.580;4.656;2023-02-04T01:10:12;103333.81;;;6.74;100.00
69306;BME280;56427;51.580;4.656;2023-02-04T01:12:37;103338.00;;;6.78;100.00
69306;BME280;56427;51.580;4.656;2023-02-04T01:15:03;103352.81;;;6.72;100.00
69306;BME280;56427;51.580;4.656;2023-02-04T01:17:29;103354.63;;;6.68;100.00
69306;BME280;56427;51.580;4.656;2023-02-04T01:19:54;103352.13;;;6.65;100.00
69306;BME280;56427;51.580;4.656;2023-02-04T01:22:20;103349.34;;;6.73;100.00
69306;BME280;56427;51.580;4.656;2023-02-04T01:24:45;103350.34;;;6.67;100.00
69306;BME280;56427;51.580;4.656;2023-02-04T01:27:10;103347.03;;;6.62;100.00
69306;BME280;56427;51.580;4.656;2023-02-04T01:29:36;103348.75;;;6.63;100.00
69306;BME280;56427;51.580;4.656;2023-02-04T01:32:02;103355.59;;;6.62;100.00
69306;BME280;56427;51.580;4.656;2023-02-04T01:34:27;103355.47;;;6.69;100.00
69306;BME280;56427;51.580;4.656;2023-02-04T01:36:55;103353.91;;;6.63;100.00
69306;BME280;56427;51.580;4.656;2023-02-04T01:39:21;103356.50;;;6.61;100.00
69306;BME280;56427;51.580;4.656;2023-02-04T01:41:46;103356.50;;;6.61;100.00
69306;BME280;56427;51.580;4.656;2023-02-04T01:44:12;103364.25;;;6.61;100.00
69306;BME280;56427;51.580;4.656;2023-02-04T01:46:37;103364.16;;;6.66;100.00
69306;BME280;56427;51.580;4.656;2023-02-04T01:49:05;103368.31;;;6.70;100.00
69306;BME280;56427;51.580;4.656;2023-02-04T01:51:30;103367.59;;;6.65;100.00
69306;BME280;56427;51.580;4.656;2023-02-04T01:53:58;103370.25;;;6.62;100.00
69306;BME280;56427;51.580;4.656;2023-02-04T01:56:25;103371.00;;;6.66;100.00
69306;BME280;56427;51.580;4.656;2023-02-04T01:58:51;103365.97;;;6.61;100.00
69306;BME280;56427;51.580;4.656;2023-02-04T02:01:36;103370.19;;;6.65;100.00
69306;BME280;56427;51.580;4.656;2023-02-04T02:04:03;103367.59;;;6.65;100.00
69306;BME280;56427;51.580;4.656;2023-02-04T02:06:29;103377.97;;;6.63;100.00
69306;BME280;56427;51.580;4.656;2023-02-04T02:08:55;103374.41;;;6.68;100.00
69306;BME280;56427;51.580;4.656;2023-02-04T02:11:22;103384.78;;;6.66;100.00
69306;BME280;56427;51.580;4.656;2023-02-04T02:13:48;103379.69;;;6.63;100.00
69306;BME280;56427;51.580;4.656;2023-02-04T02:16:13;103374.63;;;6.60;100.00
69306;BME280;56427;51.580;4.656;2023-02-04T02:18:39;103368.50;;;6.62;100.00
69306;BME280;56427;51.580;4.656;2023-02-04T02:21:08;103369.38;;;6.63;100.00
69306;BME280;56427;51.580;4.656;2023-02-04T02:23:46;103374.50;;;6.65;100.00
69306;BME280;56427;51.580;4.656;2023-02-04T02:26:12;103388.31;;;6.62;100.00
69306;BME280;56427;51.580;4.656;2023-02-04T02:28:39;103377.19;;;6.60;100.00
69306;BME280;56427;51.580;4.656;2023-02-04T02:31:05;103381.38;;;6.64;100.00
69306;BME280;56427;51.580;4.656;2023-02-04T02:33:31;103384.91;;;6.61;100.00
69306;BME280;56427;51.580;4.656;2023-02-04T02:35:56;103376.25;;;6.62;100.00
69306;BME280;56427;51.580;4.656;2023-02-04T02:38:21;103380.50;;;6.65;100.00
69306;BME280;56427;51.580;4.656;2023-02-04T02:40:47;103374.50;;;6.65;100.00
69306;BME280;56427;51.580;4.656;2023-02-04T02:43:19;103384.59;;;6.72;100.00
69306;BME280;56427;51.580;4.656;2023-02-04T02:45:46;103387.16;;;6.74;100.00
69306;BME280;56427;51.580;4.656;2023-02-04T02:48:12;103380.44;;;6.68;100.00
69306;BME280;56427;51.580;4.656;2023-02-04T02:50:38;103388.94;;;6.72;100.00
69306;BME280;56427;51.580;4.656;2023-02-04T02:53:10;103380.53;;;6.63;100.00
69306;BME280;56427;51.580;4.656;2023-02-04T02:55:35;103378.75;;;6.66;100.00
69306;BME280;56427;51.580;4.656;2023-02-04T02:58:01;103387.13;;;6.75;100.00
69306;BME280;56427;51.580;4.656;2023-02-04T03:00:28;103383.72;;;6.73;100.00
69306;BME280;56427;51.580;4.656;2023-02-04T03:05:36;103393.75;;;6.84;100.00
69306;BME280;56427;51.580;4.656;2023-02-04T03:08:03;103391.94;;;6.89;100.00
69306;BME280;56427;51.580;4.656;2023-02-04T03:10:29;103392.84;;;6.87;100.00
69306;BME280;56427;51.580;4.656;2023-02-04T03:12:55;103404.22;;;6.79;100.00
69306;BME280;56427;51.580;4.656;2023-02-04T03:15:20;103404.41;;;6.72;100.00
69306;BME280;56427;51.580;4.656;2023-02-04T03:17:46;103398.19;;;6.79;100.00
69306;BME280;56427;51.580;4.656;2023-02-04T03:20:13;103404.44;;;6.70;100.00
69306;BME280;56427;51.580;4.656;2023-02-04T03:22:39;103404.44;;;6.70;100.00
69306;BME280;56427;51.580;4.656;2023-02-04T03:25:05;103411.19;;;6.76;100.00
69306;BME280;56427;51.580;4.656;2023-02-04T03:27:30;103406.97;;;6.73;100.00
69306;BME280;56427;51.580;4.656;2023-02-04T03:29:57;103400.00;;;6.75;100.00
69306;BME280;56427;51.580;4.656;2023-02-04T03:32:22;103411.00;;;6.84;100.00
69306;BME280;56427;51.580;4.656;2023-02-04T03:34:47;103416.03;;;6.88;100.00
69306;BME280;56427;51.580;4.656;2023-02-04T03:37:13;103419.81;;;6.75;100.00
69306;BME280;56427;51.580;4.656;2023-02-04T03:39:39;103422.44;;;6.73;100.00
69306;BME280;56427;51.580;4.656;2023-02-04T03:42:04;103422.50;;;6.70;100.00
69306;BME280;56427;51.580;4.656;2023-02-04T03:44:29;103423.31;;;6.72;100.00
69306;BME280;56427;51.580;4.656;2023-02-04T03:46:55;103426.66;;;6.76;100.00
69306;BME280;56427;51.580;4.656;2023-02-04T03:49:21;103421.75;;;6.67;100.00
69306;BME280;56427;51.580;4.656;2023-02-04T03:51:49;103421.72;;;6.68;100.00
69306;BME280;56427;51.580;4.656;2023-02-04T03:54:14;103410.47;;;6.69;100.00
69306;BME280;56427;51.580;4.656;2023-02-04T03:56:40;103406.19;;;6.70;100.00
69306;BME280;56427;51.580;4.656;2023-02-04T03:59:05;103413.00;;;6.72;100.00
69306;BME280;56427;51.580;4.656;2023-02-04T04:01:30;103411.41;;;6.68;100.00
69306;BME280;56427;51.580;4.656;2023-02-04T04:03:56;103408.75;;;6.71;100.00
69306;BME280;56427;51.580;4.656;2023-02-04T04:06:21;103411.50;;;6.63;100.00
69306;BME280;56427;51.580;4.656;2023-02-04T04:08:47;103423.53;;;6.65;100.00
69306;BME280;56427;51.580;4.656;2023-02-04T04:11:12;103422.63;;;6.66;100.00
69306;BME280;56427;51.580;4.656;2023-02-04T04:13:37;103437.19;;;6.68;100.00
69306;BME280;56427;51.580;4.656;2023-02-04T04:16:03;103428.56;;;6.69;100.00
69306;BME280;56427;51.580;4.656;2023-02-04T04:18:29;103437.13;;;6.71;100.00
69306;BME280;56427;51.580;4.656;2023-02-04T04:20:55;103438.00;;;6.70;100.00
69306;BME280;56427;51.580;4.656;2023-02-04T04:23:20;103445.91;;;6.62;100.00
69306;BME280;56427;51.580;4.656;2023-02-04T04:25:45;103441.63;;;6.63;100.00
69306;BME280;56427;51.580;4.656;2023-02-04T04:28:11;103449.34;;;6.65;100.00
69306;BME280;56427;51.580;4.656;2023-02-04T04:30:36;103458.78;;;6.64;100.00
69306;BME280;56427;51.580;4.656;2023-02-04T04:33:01;103463.88;;;6.67;100.00
69306;BME280;56427;51.580;4.656;2023-02-04T04:35:27;103468.31;;;6.62;100.00
69306;BME280;56427;51.580;4.656;2023-02-04T04:37:52;103463.81;;;6.70;100.00
69306;BME280;56427;51.580;4.656;2023-02-04T04:40:17;103461.25;;;6.69;100.00
69306;BME280;56427;51.580;4.656;2023-02-04T04:42:43;103465.47;;;6.73;100.00
69306;BME280;56427;51.580;4.656;2023-02-04T04:45:09;103463.66;;;6.76;100.00
69306;BME280;56427;51.580;4.656;2023-02-04T04:47:35;103460.97;;;6.81;100.00
69306;BME280;56427;51.580;4.656;2023-02-04T04:50:00;103455.06;;;6.76;100.00
69306;BME280;56427;51.580;4.656;2023-02-04T04:52:25;103443.16;;;6.70;100.00
69306;BME280;56427;51.580;4.656;2023-02-04T04:54:50;103442.41;;;6.67;100.00
69306;BME280;56427;51.580;4.656;2023-02-04T04:57:16;103437.25;;;6.67;100.00
69306;BME280;56427;51.580;4.656;2023-02-04T04:59:41;103438.97;;;6.66;100.00
69306;BME280;56427;51.580;4.656;2023-02-04T05:02:07;103440.69;;;6.66;100.00
69306;BME280;56427;51.580;4.656;2023-02-04T05:04:32;103443.28;;;6.66;100.00
69306;BME280;56427;51.580;4.656;2023-02-04T05:06:57;103443.31;;;6.64;100.00
69306;BME280;56427;51.580;4.656;2023-02-04T05:09:23;103438.84;;;6.71;100.00
69306;BME280;56427;51.580;4.656;2023-02-04T05:11:48;103448.22;;;6.75;100.00
69306;BME280;56427;51.580;4.656;2023-02-04T05:14:13;103449.22;;;6.68;100.00
69306;BME280;56427;51.580;4.656;2023-02-04T05:16:38;103452.66;;;6.70;100.00
69306;BME280;56427;51.580;4.656;2023-02-04T05:19:04;103464.66;;;6.71;100.00
69306;BME280;56427;51.580;4.656;2023-02-04T05:21:30;103469.59;;;6.80;100.00
69306;BME280;56427;51.580;4.656;2023-02-04T05:23:55;103476.50;;;6.79;100.00
69306;BME280;56427;51.580;4.656;2023-02-04T05:26:20;103469.59;;;6.80;100.00
69306;BME280;56427;51.580;4.656;2023-02-04T05:28:46;103473.94;;;6.78;100.00
69306;BME280;56427;51.580;4.656;2023-02-04T05:31:11;103472.34;;;6.72;100.00
69306;BME280;56427;51.580;4.656;2023-02-04T05:33:36;103478.28;;;6.76;100.00
69306;BME280;56427;51.580;4.656;2023-02-04T05:36:02;103480.72;;;6.82;100.00
69306;BME280;56427;51.580;4.656;2023-02-04T05:38:27;103479.09;;;6.79;100.00
69306;BME280;56427;51.580;4.656;2023-02-04T05:40:53;103485.78;;;6.87;100.00
69306;BME280;56427;51.580;4.656;2023-02-04T05:43:18;103474.56;;;6.88;100.00
69306;BME280;56427;51.580;4.656;2023-02-04T05:45:43;103483.25;;;6.84;100.00
69306;BME280;56427;51.580;4.656;2023-02-04T05:48:09;103486.75;;;6.82;100.00
69306;BME280;56427;51.580;4.656;2023-02-04T05:50:34;103484.00;;;6.89;100.00
69306;BME280;56427;51.580;4.656;2023-02-04T05:52:59;103492.28;;;7.02;100.00
69306;BME280;56427;51.580;4.656;2023-02-04T05:55:24;103499.38;;;6.93;100.00
69306;BME280;56427;51.580;4.656;2023-02-04T05:57:50;103499.34;;;6.95;100.00
69306;BME280;56427;51.580;4.656;2023-02-04T06:00:15;103493.38;;;6.93;100.00
69306;BME280;56427;51.580;4.656;2023-02-04T06:02:40;103498.38;;;6.99;100.00
69306;BME280;56427;51.580;4.656;2023-02-04T06:05:06;103492.41;;;6.97;100.00
69306;BME280;56427;51.580;4.656;2023-02-04T06:07:31;103497.59;;;6.95;100.00
69306;BME280;56427;51.580;4.656;2023-02-04T06:09:57;103496.91;;;6.89;100.00
69306;BME280;56427;51.580;4.656;2023-02-04T06:12:22;103497.94;;;6.81;100.00
69306;BME280;56427;51.580;4.656;2023-02-04T06:14:48;103510.13;;;6.76;100.00
69306;BME280;56427;51.580;4.656;2023-02-04T06:17:13;103507.66;;;6.72;100.00
69306;BME280;56427;51.580;4.656;2023-02-04T06:19:39;103507.50;;;6.78;100.00
69306;BME280;56427;51.580;4.656;2023-02-04T06:22:04;103517.88;;;6.76;100.00
69306;BME280;56427;51.580;4.656;2023-02-04T06:24:29;103513.44;;;6.81;100.00
69306;BME280;56427;51.580;4.656;2023-02-04T06:26:54;103521.16;;;6.83;100.00
69306;BME280;56427;51.580;4.656;2023-02-04T06:29:20;103520.97;;;6.91;100.00
69306;BME280;56427;51.580;4.656;2023-02-04T06:31:45;103522.81;;;6.84;100.00
69306;BME280;56427;51.580;4.656;2023-02-04T06:34:12;103525.50;;;6.81;100.00
69306;BME280;56427;51.580;4.656;2023-02-04T06:36:38;103525.53;;;6.79;100.00
69306;BME280;56427;51.580;4.656;2023-02-04T06:39:03;103533.22;;;6.82;100.00
69306;BME280;56427;51.580;4.656;2023-02-04T06:41:28;103526.28;;;6.85;100.00
69306;BME280;56427;51.580;4.656;2023-02-04T06:43:54;103532.31;;;6.84;100.00
69306;BME280;56427;51.580;4.656;2023-02-04T06:46:19;103535.72;;;6.84;100.00
69306;BME280;56427;51.580;4.656;2023-02-04T06:48:44;103541.63;;;6.91;100.00
69306;BME280;56427;51.580;4.656;2023-02-04T06:51:10;103537.47;;;6.84;100.00
69306;BME280;56427;51.580;4.656;2023-02-04T06:53:35;103528.06;;;6.82;100.00
69306;BME280;56427;51.580;4.656;2023-02-04T06:56:00;103534.84;;;6.85;100.00
69306;BME280;56427;51.580;4.656;2023-02-04T06:58:26;103537.34;;;6.90;100.00
69306;BME280;56427;51.580;4.656;2023-02-04T07:00:51;103534.94;;;6.82;100.00
69306;BME280;56427;51.580;4.656;2023-02-04T07:03:16;103538.44;;;6.79;100.00
69306;BME280;56427;51.580;4.656;2023-02-04T07:05:42;103541.84;;;6.81;100.00
69306;BME280;56427;51.580;4.656;2023-02-04T07:08:07;103537.44;;;6.85;100.00
69306;BME280;56427;51.580;4.656;2023-02-04T07:10:33;103547.63;;;6.91;100.00
69306;BME280;56427;51.580;4.656;2023-02-04T07:12:59;103539.75;;;6.97;100.00
69306;BME280;56427;51.580;4.656;2023-02-04T07:15:24;103550.28;;;7.23;100.00
69306;BME280;56427;51.580;4.656;2023-02-04T07:17:49;103552.84;;;7.24;100.00
69306;BME280;56427;51.580;4.656;2023-02-04T07:20:15;103555.59;;;7.16;100.00
69306;BME280;56427;51.580;4.656;2023-02-04T07:22:41;103556.44;;;7.17;100.00
69306;BME280;56427;51.580;4.656;2023-02-04T07:25:06;103563.22;;;7.23;100.00
69306;BME280;56427;51.580;4.656;2023-02-04T07:27:32;103561.81;;;7.09;100.00
69306;BME280;56427;51.580;4.656;2023-02-04T07:29:58;103552.63;;;6.99;100.00
69306;BME280;56427;51.580;4.656;2023-02-04T07:32:23;103560.28;;;7.00;100.00
69306;BME280;56427;51.580;4.656;2023-02-04T07:34:48;103564.66;;;6.98;100.00
69306;BME280;56427;51.580;4.656;2023-02-04T07:37:14;103563.22;;;6.87;100.00
69306;BME280;56427;51.580;4.656;2023-02-04T07:39:39;103570.09;;;6.88;100.00
69306;BME280;56427;51.580;4.656;2023-02-04T07:42:04;103572.69;;;6.88;100.00
69306;BME280;56427;51.580;4.656;2023-02-04T07:44:30;103562.41;;;6.85;100.00
69306;BME280;56427;51.580;4.656;2023-02-04T07:46:55;103569.19;;;6.89;100.00
69306;BME280;56427;51.580;4.656;2023-02-04T07:49:21;103568.25;;;6.93;100.00
69306;BME280;56427;51.580;4.656;2023-02-04T07:51:47;103569.22;;;6.87;100.00
69306;BME280;56427;51.580;4.656;2023-02-04T07:54:12;103563.19;;;6.88;100.00
69306;BME280;56427;51.580;4.656;2023-02-04T07:56:37;103565.81;;;6.87;100.00
69306;BME280;56427;51.580;4.656;2023-02-04T07:59:03;103573.50;;;6.88;100.00
69306;BME280;56427;51.580;4.656;2023-02-04T08:01:28;103574.31;;;6.90;100.00
69306;BME280;56427;51.580;4.656;2023-02-04T08:03:53;103578.59;;;6.91;100.00
69306;BME280;56427;51.580;4.656;2023-02-04T08:06:19;103581.19;;;6.91;100.00
69306;BME280;56427;51.580;4.656;2023-02-04T08:08:44;103585.31;;;6.98;100.00
69306;BME280;56427;51.580;4.656;2023-02-04T08:11:09;103590.31;;;7.06;100.00
69306;BME280;56427;51.580;4.656;2023-02-04T08:13:35;103591.03;;;7.11;100.00
69306;BME280;56427;51.580;4.656;2023-02-04T08:16:00;103597.03;;;7.12;100.00
69306;BME280;56427;51.580;4.656;2023-02-04T08:18:25;103588.41;;;7.13;100.00
69306;BME280;56427;51.580;4.656;2023-02-04T08:20:51;103592.56;;;7.18;100.00
69306;BME280;56427;51.580;4.656;2023-02-04T08:23:17;103595.09;;;7.22;100.00
69306;BME280;56427;51.580;4.656;2023-02-04T08:25:42;103596.75;;;7.24;100.00
69306;BME280;56427;51.580;4.656;2023-02-04T08:28:09;103596.91;;;7.18;100.00
69306;BME280;56427;51.580;4.656;2023-02-04T08:30:35;103594.47;;;7.12;100.00
69306;BME280;56427;51.580;4.656;2023-02-04T08:33:00;103598.59;;;7.19;100.00
69306;BME280;56427;51.580;4.656;2023-02-04T08:35:26;103596.84;;;7.19;100.00
69306;BME280;56427;51.580;4.656;2023-02-04T08:37:51;103602.41;;;7.40;100.00
69306;BME280;56427;51.580;4.656;2023-02-04T08:40:17;103610.28;;;7.34;100.00
69306;BME280;56427;51.580;4.656;2023-02-04T08:42:42;103606.09;;;7.28;100.00
69306;BME280;56427;51.580;4.656;2023-02-04T08:45:08;103616.19;;;7.39;100.00
69306;BME280;56427;51.580;4.656;2023-02-04T08:47:33;103614.00;;;7.24;100.00
69306;BME280;56427;51.580;4.656;2023-02-04T08:49:58;103621.56;;;7.30;100.00
69306;BME280;56427;51.580;4.656;2023-02-04T08:52:23;103616.22;;;7.37;100.00
69306;BME280;56427;51.580;4.656;2023-02-04T08:54:49;103613.50;;;7.44;100.00
69306;BME280;56427;51.580;4.656;2023-02-04T08:57:14;103614.19;;;7.50;100.00
69306;BME280;56427;51.580;4.656;2023-02-04T08:59:39;103624.41;;;7.55;100.00
69306;BME280;56427;51.580;4.656;2023-02-04T09:02:05;103628.72;;;7.54;100.00
69306;BME280;56427;51.580;4.656;2023-02-04T09:04:30;103628.56;;;7.61;100.00
69306;BME280;56427;51.580;4.656;2023-02-04T09:06:56;103627.59;;;7.65;100.00
69306;BME280;56427;51.580;4.656;2023-02-04T09:09:21;103626.78;;;7.63;100.00
69306;BME280;56427;51.580;4.656;2023-02-04T09:11:46;103635.22;;;7.69;100.00
69306;BME280;56427;51.580;4.656;2023-02-04T09:14:12;103634.44;;;7.66;100.00
69306;BME280;56427;51.580;4.656;2023-02-04T09:16:37;103639.22;;;7.48;100.00
69306;BME280;56427;51.580;4.656;2023-02-04T09:19:03;103643.78;;;7.39;100.00
69306;BME280;56427;51.580;4.656;2023-02-04T09:21:29;103645.59;;;7.33;100.00
69306;BME280;56427;51.580;4.656;2023-02-04T09:23:54;103649.81;;;7.37;100.00
69306;BME280;56427;51.580;4.656;2023-02-04T09:26:22;103655.25;;;7.61;100.00
69306;BME280;56427;51.580;4.656;2023-02-04T09:28:48;103654.94;;;7.73;100.00
69306;BME280;56427;51.580;4.656;2023-02-04T09:31:14;103656.63;;;8.07;100.00
69306;BME280;56427;51.580;4.656;2023-02-04T09:33:42;103658.91;;;8.18;100.00
69306;BME280;56427;51.580;4.656;2023-02-04T09:36:08;103655.47;;;7.86;100.00
69306;BME280;56427;51.580;4.656;2023-02-04T09:38:33;103669.03;;;7.62;100.00
69306;BME280;56427;51.580;4.656;2023-02-04T09:41:02;103664.66;;;7.64;100.00
69306;BME280;56427;51.580;4.656;2023-02-04T09:43:35;103669.22;;;7.88;100.00
69306;BME280;56427;51.580;4.656;2023-02-04T09:46:03;103666.97;;;8.07;100.00
69306;BME280;56427;51.580;4.656;2023-02-04T09:48:28;103665.09;;;7.81;100.00
69306;BME280;56427;51.580;4.656;2023-02-04T09:51:04;103657.56;;;7.72;100.00
69306;BME280;56427;51.580;4.656;2023-02-04T09:53:30;103671.56;;;7.65;100.00
69306;BME280;56427;51.580;4.656;2023-02-04T09:55:56;103657.53;;;7.73;100.00
69306;BME280;56427;51.580;4.656;2023-02-04T09:58:22;103667.94;;;7.70;100.00
69306;BME280;56427;51.580;4.656;2023-02-04T10:00:57;103671.59;;;7.63;100.00
69306;BME280;56427;51.580;4.656;2023-02-04T10:03:24;103681.06;;;7.63;100.00
69306;BME280;56427;51.580;4.656;2023-02-04T10:05:50;103680.78;;;7.73;100.00
69306;BME280;56427;51.580;4.656;2023-02-04T10:08:18;103681.16;;;7.92;100.00
69306;BME280;56427;51.580;4.656;2023-02-04T10:10:45;103687.00;;;7.99;100.00
69306;BME280;56427;51.580;4.656;2023-02-04T10:13:18;103688.16;;;7.89;100.00
69306;BME280;56427;51.580;4.656;2023-02-04T10:15:46;103689.53;;;8.02;100.00
69306;BME280;56427;51.580;4.656;2023-02-04T10:18:20;103692.81;;;8.07;100.00
69306;BME280;56427;51.580;4.656;2023-02-04T10:20:48;103690.94;;;8.14;100.00
69306;BME280;56427;51.580;4.656;2023-02-04T10:23:14;103692.09;;;8.02;100.00
69306;BME280;56427;51.580;4.656;2023-02-04T10:25:39;103688.09;;;7.90;100.00
69306;BME280;56427;51.580;4.656;2023-02-04T10:28:04;103693.44;;;7.84;100.00
69306;BME280;56427;51.580;4.656;2023-02-04T10:30:38;103692.66;;;7.81;100.00
69306;BME280;56427;51.580;4.656;2023-02-04T10:35:45;103693.09;;;7.98;100.00
69306;BME280;56427;51.580;4.656;2023-02-04T10:38:10;103690.47;;;8.00;100.00
69306;BME280;56427;51.580;4.656;2023-02-04T10:40:36;103697.34;;;7.99;100.00
69306;BME280;56427;51.580;4.656;2023-02-04T10:43:22;103694.94;;;7.93;100.00
69306;BME280;56427;51.580;4.656;2023-02-04T10:45:56;103702.03;;;8.19;100.00
69306;BME280;56427;51.580;4.656;2023-02-04T10:48:22;103700.78;;;8.01;100.00
69306;BME280;56427;51.580;4.656;2023-02-04T10:50:48;103700.69;;;8.04;100.00
69306;BME280;56427;51.580;4.656;2023-02-04T10:53:19;103697.72;;;8.18;100.00
69306;BME280;56427;51.580;4.656;2023-02-04T10:56:13;103709.31;;;8.36;100.00
69306;BME280;56427;51.580;4.656;2023-02-04T10:58:39;103701.22;;;8.16;100.00
69306;BME280;56427;51.580;4.656;2023-02-04T11:01:09;103694.41;;;8.13;100.00
69306;BME280;56427;51.580;4.656;2023-02-04T11:03:36;103699.44;;;8.19;100.00
69306;BME280;56427;51.580;4.656;2023-02-04T11:06:09;103704.97;;;8.37;100.00
69306;BME280;56427;51.580;4.656;2023-02-04T11:08:36;103699.75;;;8.07;100.00
69306;BME280;56427;51.580;4.656;2023-02-04T11:11:11;103694.69;;;8.02;100.00
69306;BME280;56427;51.580;4.656;2023-02-04T11:16:33;103693.84;;;8.02;100.00
69306;BME280;56427;51.580;4.656;2023-02-04T11:19:02;103692.94;;;8.04;100.00
69306;BME280;56427;51.580;4.656;2023-02-04T11:21:48;103692.78;;;8.09;100.00
69306;BME280;56427;51.580;4.656;2023-02-04T11:26:46;103690.53;;;7.97;100.00
69306;BME280;56427;51.580;4.656;2023-02-04T11:39:43;103696.19;;;7.78;100.00
69306;BME280;56427;51.580;4.656;2023-02-04T11:44:57;103673.00;;;7.75;100.00
69306;BME280;56427;51.580;4.656;2023-02-04T11:47:24;103687.66;;;7.74;100.00
69306;BME280;56427;51.580;4.656;2023-02-04T11:49:56;103686.81;;;7.74;100.00
69306;BME280;56427;51.580;4.656;2023-02-04T11:52:22;103674.47;;;7.85;100.00
69306;BME280;56427;51.580;4.656;2023-02-04T11:54:58;103678.22;;;7.73;100.00
69306;BME280;56427;51.580;4.656;2023-02-04T11:57:25;103683.56;;;7.66;100.00
69306;BME280;56427;51.580;4.656;2023-02-04T11:59:50;103685.97;;;7.73;100.00
69306;BME280;56427;51.580;4.656;2023-02-04T12:02:21;103693.75;;;7.72;100.00
69306;BME280;56427;51.580;4.656;2023-02-04T12:05:08;103691.53;;;7.91;100.00
69306;BME280;56427;51.580;4.656;2023-02-04T12:07:34;103689.34;;;8.08;100.00
69306;BME280;56427;51.580;4.656;2023-02-04T12:10:13;103686.00;;;8.05;100.00
69306;BME280;56427;51.580;4.656;2023-02-04T12:12:43;103680.50;;;8.17;100.00
69306;BME280;56427;51.580;4.656;2023-02-04T12:15:23;103685.47;;;8.25;100.00
69306;BME280;56427;51.580;4.656;2023-02-04T12:18:03;103692.22;;;8.31;100.00
69306;BME280;56427;51.580;4.656;2023-02-04T12:20:29;103685.91;;;8.41;100.00
69306;BME280;56427;51.580;4.656;2023-02-04T12:22:54;103693.97;;;8.28;100.00
69306;BME280;56427;51.580;4.656;2023-02-04T12:25:20;103689.88;;;8.21;100.00
69306;BME280;56427;51.580;4.656;2023-02-04T12:27:45;103696.16;;;8.13;100.00
69306;BME280;56427;51.580;4.656;2023-02-04T12:30:11;103695.69;;;8.29;100.00
69306;BME280;56427;51.580;4.656;2023-02-04T12:32:37;103691.81;;;8.13;100.00
69306;BME280;56427;51.580;4.656;2023-02-04T12:35:02;103698.22;;;8.00;100.00
69306;BME280;56427;51.580;4.656;2023-02-04T12:37:27;103690.56;;;7.95;100.00
69306;BME280;56427;51.580;4.656;2023-02-04T12:39:53;103696.78;;;7.89;100.00
69306;BME280;56427;51.580;4.656;2023-02-04T12:42:18;103696.78;;;7.89;100.00
69306;BME280;56427;51.580;4.656;2023-02-04T12:44:43;103696.47;;;8.00;100.00
69306;BME280;56427;51.580;4.656;2023-02-04T12:47:08;103691.44;;;8.27;100.00
69306;BME280;56427;51.580;4.656;2023-02-04T12:49:34;103689.63;;;8.31;100.00
69306;BME280;56427;51.580;4.656;2023-02-04T12:51:59;103694.69;;;8.02;100.00
69306;BME280;56427;51.580;4.656;2023-02-04T12:54:26;103692.94;;;8.36;100.00
69306;BME280;56427;51.580;4.656;2023-02-04T12:56:52;103689.94;;;8.51;100.00
69306;BME280;56427;51.580;4.656;2023-02-04T12:59:18;103690.09;;;8.45;100.00
69306;BME280;56427;51.580;4.656;2023-02-04T13:01:43;103691.59;;;8.54;100.00
69306;BME280;56427;51.580;4.656;2023-02-04T13:04:08;103693.81;;;8.35;100.00
69306;BME280;56427;51.580;4.656;2023-02-04T13:06:33;103691.13;;;8.39;100.00
69306;BME280;56427;51.580;4.656;2023-02-04T13:08:59;103692.31;;;8.27;100.00
69306;BME280;56427;51.580;4.656;2023-02-04T13:11:24;103679.91;;;8.39;100.00